sensor_id;sensor_type;location;lat;lon;timestamp;P1;durP1;ratioP1;P2;durP2;ratioP2
31652;SDS011;18261;53.648;9.910;2023-11-19T00:00:38;17.38;;;10.68;;
31652;SDS011;18261;53.648;9.910;2023-11-19T00:03:04;14.98;;;10.23;;
31652;SDS011;18261;53.648;9.910;2023-11-19T00:05:31;17.70;;;10.70;;
31652;SDS011;18261;53.648;9.910;2023-11-19T00:07:57;15.00;;;10.18;;
31652;SDS011;18261;53.648;9.910;2023-11-19T00:10:25;16.88;;;9.93;;
31652;SDS011;18261;53.648;9.910;2023-11-19T00:12:52;15.52;;;10.00;;
31652;SDS011;18261;53.648;9.910;2023-11-19T00:15:24;14.27;;;10.25;;
31652;SDS011;18261;53.648;9.910;2023-11-19T00:17:50;15.80;;;10.05;;
31652;SDS011;18261;53.648;9.910;2023-11-19T00:20:28;17.58;;;10.77;;
31652;SDS011;18261;53.648;9.910;2023-11-19T00:22:54;15.70;;;10.07;;
31652;SDS011;18261;53.648;9.910;2023-11-19T00:25:21;14.70;;;9.57;;
31652;SDS011;18261;53.648;9.910;2023-11-19T00:27:50;15.02;;;10.25;;
31652;SDS011;18261;53.648;9.910;2023-11-19T00:30:16;15.00;;;9.38;;
31652;SDS011;18261;53.648;9.910;2023-11-19T00:32:45;13.45;;;9.07;;
31652;SDS011;18261;53.648;9.910;2023-11-19T00:35:11;13.57;;;8.98;;
31652;SDS011;18261;53.648;9.910;2023-11-19T00:37:56;15.68;;;8.52;;
31652;SDS011;18261;53.648;9.910;2023-11-19T00:40:26;12.60;;;8.15;;
31652;SDS011;18261;53.648;9.910;2023-11-19T00:42:52;13.60;;;7.68;;
31652;SDS011;18261;53.648;9.910;2023-11-19T00:45:18;10.80;;;7.40;;
31652;SDS011;18261;53.648;9.910;2023-11-19T00:47:44;9.82;;;7.10;;
31652;SDS011;18261;53.648;9.910;2023-11-19T00:50:13;12.00;;;6.53;;
31652;SDS011;18261;53.648;9.910;2023-11-19T00:52:40;9.85;;;7.28;;
31652;SDS011;18261;53.648;9.910;2023-11-19T00:55:08;10.00;;;6.97;;
31652;SDS011;18261;53.648;9.910;2023-11-19T00:57:35;8.23;;;5.63;;
31652;SDS011;18261;53.648;9.910;2023-11-19T01:00:01;7.47;;;5.82;;
31652;SDS011;18261;53.648;9.910;2023-11-19T01:02:37;9.02;;;5.75;;
31652;SDS011;18261;53.648;9.910;2023-11-19T01:05:07;7.25;;;5.60;;
31652;SDS011;18261;53.648;9.910;2023-11-19T01:07:34;8.02;;;5.32;;
31652;SDS011;18261;53.648;9.910;2023-11-19T01:10:03;11.55;;;5.63;;
31652;SDS011;18261;53.648;9.910;2023-11-19T01:12:52;7.05;;;5.13;;
31652;SDS011;18261;53.648;9.910;2023-11-19T01:15:19;7.57;;;5.20;;
31652;SDS011;18261;53.648;9.910;2023-11-19T01:17:45;8.68;;;5.45;;
31652;SDS011;18261;53.648;9.910;2023-11-19T01:20:11;7.00;;;4.75;;
31652;SDS011;18261;53.648;9.910;2023-11-19T01:22:41;6.80;;;5.07;;
31652;SDS011;18261;53.648;9.910;2023-11-19T01:25:19;7.03;;;4.85;;
31652;SDS011;18261;53.648;9.910;2023-11-19T01:27:45;6.53;;;4.38;;
31652;SDS011;18261;53.648;9.910;2023-11-19T01:30:14;5.78;;;4.38;;
31652;SDS011;18261;53.648;9.910;2023-11-19T01:32:47;5.85;;;4.10;;
31652;SDS011;18261;53.648;9.910;2023-11-19T01:35:16;6.32;;;4.13;;
31652;SDS011;18261;53.648;9.910;2023-11-19T01:37:45;5.55;;;3.70;;
31652;SDS011;18261;53.648;9.910;2023-11-19T01:40:19;5.05;;;3.50;;
31652;SDS011;18261;53.648;9.910;2023-11-19T01:42:45;3.60;;;2.90;;
31652;SDS011;18261;53.648;9.910;2023-11-19T01:45:16;7.85;;;3.25;;
31652;SDS011;18261;53.648;9.910;2023-11-19T01:47:47;5.57;;;3.70;;
31652;SDS011;18261;53.648;9.910;2023-11-19T01:50:13;4.57;;;3.30;;
31652;SDS011;18261;53.648;9.910;2023-11-19T01:52:40;4.80;;;3.60;;
31652;SDS011;18261;53.648;9.910;2023-11-19T01:55:09;4.93;;;3.60;;
31652;SDS011;18261;53.648;9.910;2023-11-19T01:57:52;6.88;;;3.97;;
31652;SDS011;18261;53.648;9.910;2023-11-19T02:00:19;4.88;;;3.28;;
31652;SDS011;18261;53.648;9.910;2023-11-19T02:02:51;5.60;;;3.33;;
31652;SDS011;18261;53.648;9.910;2023-11-19T02:05:19;4.80;;;3.55;;
31652;SDS011;18261;53.648;9.910;2023-11-19T02:07:57;7.32;;;3.38;;
31652;SDS011;18261;53.648;9.910;2023-11-19T02:10:23;5.30;;;3.50;;
31652;SDS011;18261;53.648;9.910;2023-11-19T02:12:58;3.50;;;2.75;;
31652;SDS011;18261;53.648;9.910;2023-11-19T02:15:25;3.22;;;2.55;;
31652;SDS011;18261;53.648;9.910;2023-11-19T02:17:51;5.50;;;3.03;;
31652;SDS011;18261;53.648;9.910;2023-11-19T02:20:17;3.90;;;2.80;;
31652;SDS011;18261;53.648;9.910;2023-11-19T02:22:59;4.07;;;2.97;;
31652;SDS011;18261;53.648;9.910;2023-11-19T02:28:36;3.50;;;2.63;;
31652;SDS011;18261;53.648;9.910;2023-11-19T02:31:03;3.88;;;2.78;;
31652;SDS011;18261;53.648;9.910;2023-11-19T02:33:39;3.10;;;2.58;;
31652;SDS011;18261;53.648;9.910;2023-11-19T02:36:09;4.78;;;3.13;;
31652;SDS011;18261;53.648;9.910;2023-11-19T02:38:36;3.78;;;2.63;;
31652;SDS011;18261;53.648;9.910;2023-11-19T02:41:23;3.10;;;2.53;;
31652;SDS011;18261;53.648;9.910;2023-11-19T02:43:49;3.65;;;2.80;;
31652;SDS011;18261;53.648;9.910;2023-11-19T02:46:21;4.82;;;3.22;;
31652;SDS011;18261;53.648;9.910;2023-11-19T02:49:08;4.00;;;2.80;;
31652;SDS011;18261;53.648;9.910;2023-11-19T02:51:37;2.65;;;2.35;;
31652;SDS011;18261;53.648;9.910;2023-11-19T02:54:09;3.72;;;2.30;;
31652;SDS011;18261;53.648;9.910;2023-11-19T02:56:42;4.05;;;2.28;;
31652;SDS011;18261;53.648;9.910;2023-11-19T02:59:38;2.45;;;1.95;;
31652;SDS011;18261;53.648;9.910;2023-11-19T03:02:06;2.47;;;2.00;;
31652;SDS011;18261;53.648;9.910;2023-11-19T03:04:45;2.30;;;1.90;;
31652;SDS011;18261;53.648;9.910;2023-11-19T03:07:11;2.10;;;1.90;;
31652;SDS011;18261;53.648;9.910;2023-11-19T03:10:03;2.15;;;1.73;;
31652;SDS011;18261;53.648;9.910;2023-11-19T03:12:34;1.65;;;1.50;;
31652;SDS011;18261;53.648;9.910;2023-11-19T03:15:04;2.85;;;2.00;;
31652;SDS011;18261;53.648;9.910;2023-11-19T03:17:34;4.97;;;1.90;;
31652;SDS011;18261;53.648;9.910;2023-11-19T03:20:04;4.25;;;2.10;;
31652;SDS011;18261;53.648;9.910;2023-11-19T03:22:46;4.47;;;2.15;;
31652;SDS011;18261;53.648;9.910;2023-11-19T03:25:14;3.63;;;1.70;;
31652;SDS011;18261;53.648;9.910;2023-11-19T03:27:41;2.78;;;1.80;;
31652;SDS011;18261;53.648;9.910;2023-11-19T03:30:31;2.58;;;2.17;;
31652;SDS011;18261;53.648;9.910;2023-11-19T03:32:59;4.03;;;2.38;;
31652;SDS011;18261;53.648;9.910;2023-11-19T03:35:31;2.85;;;2.10;;
31652;SDS011;18261;53.648;9.910;2023-11-19T03:37:58;3.35;;;2.33;;
31652;SDS011;18261;53.648;9.910;2023-11-19T03:40:28;2.75;;;2.40;;
31652;SDS011;18261;53.648;9.910;2023-11-19T03:42:58;2.63;;;2.28;;
31652;SDS011;18261;53.648;9.910;2023-11-19T03:45:24;4.03;;;2.97;;
31652;SDS011;18261;53.648;9.910;2023-11-19T03:47:50;4.05;;;3.10;;
31652;SDS011;18261;53.648;9.910;2023-11-19T03:50:16;3.63;;;2.85;;
31652;SDS011;18261;53.648;9.910;2023-11-19T03:52:48;5.65;;;3.22;;
31652;SDS011;18261;53.648;9.910;2023-11-19T03:55:14;8.80;;;3.75;;
31652;SDS011;18261;53.648;9.910;2023-11-19T03:57:40;5.00;;;3.80;;
31652;SDS011;18261;53.648;9.910;2023-11-19T04:00:07;8.13;;;3.55;;
31652;SDS011;18261;53.648;9.910;2023-11-19T04:02:44;5.40;;;3.92;;
31652;SDS011;18261;53.648;9.910;2023-11-19T04:05:15;5.82;;;3.70;;
31652;SDS011;18261;53.648;9.910;2023-11-19T04:07:41;6.13;;;3.75;;
31652;SDS011;18261;53.648;9.910;2023-11-19T04:10:07;5.55;;;4.18;;
31652;SDS011;18261;53.648;9.910;2023-11-19T04:12:34;5.85;;;4.63;;
31652;SDS011;18261;53.648;9.910;2023-11-19T04:15:04;5.35;;;4.35;;
31652;SDS011;18261;53.648;9.910;2023-11-19T04:17:31;7.00;;;4.68;;
31652;SDS011;18261;53.648;9.910;2023-11-19T04:19:57;6.63;;;5.10;;
31652;SDS011;18261;53.648;9.910;2023-11-19T04:22:23;7.10;;;5.18;;
31652;SDS011;18261;53.648;9.910;2023-11-19T04:24:53;6.35;;;5.00;;
31652;SDS011;18261;53.648;9.910;2023-11-19T04:27:19;8.25;;;5.45;;
31652;SDS011;18261;53.648;9.910;2023-11-19T04:29:48;11.95;;;6.20;;
31652;SDS011;18261;53.648;9.910;2023-11-19T04:32:15;8.05;;;5.57;;
31652;SDS011;18261;53.648;9.910;2023-11-19T04:34:41;7.50;;;5.50;;
31652;SDS011;18261;53.648;9.910;2023-11-19T04:37:08;11.15;;;6.78;;
31652;SDS011;18261;53.648;9.910;2023-11-19T04:39:34;20.55;;;11.00;;
31652;SDS011;18261;53.648;9.910;2023-11-19T04:42:02;11.32;;;7.32;;
31652;SDS011;18261;53.648;9.910;2023-11-19T04:44:32;12.00;;;6.72;;
31652;SDS011;18261;53.648;9.910;2023-11-19T04:46:59;9.98;;;7.30;;
31652;SDS011;18261;53.648;9.910;2023-11-19T04:49:25;12.05;;;7.88;;
31652;SDS011;18261;53.648;9.910;2023-11-19T04:51:52;13.40;;;9.02;;
31652;SDS011;18261;53.648;9.910;2023-11-19T04:54:21;16.42;;;9.60;;
31652;SDS011;18261;53.648;9.910;2023-11-19T04:56:50;18.30;;;9.13;;
31652;SDS011;18261;53.648;9.910;2023-11-19T04:59:17;18.27;;;10.10;;
31652;SDS011;18261;53.648;9.910;2023-11-19T05:01:46;18.15;;;10.45;;
31652;SDS011;18261;53.648;9.910;2023-11-19T05:04:15;18.27;;;11.48;;
31652;SDS011;18261;53.648;9.910;2023-11-19T05:06:43;26.60;;;12.10;;
31652;SDS011;18261;53.648;9.910;2023-11-19T05:09:13;24.10;;;14.40;;
31652;SDS011;18261;53.648;9.910;2023-11-19T05:11:41;27.50;;;13.73;;
31652;SDS011;18261;53.648;9.910;2023-11-19T05:14:08;27.77;;;15.05;;
31652;SDS011;18261;53.648;9.910;2023-11-19T05:16:34;32.40;;;17.85;;
31652;SDS011;18261;53.648;9.910;2023-11-19T05:19:10;36.60;;;20.33;;
31652;SDS011;18261;53.648;9.910;2023-11-19T05:21:41;41.85;;;24.83;;
31652;SDS011;18261;53.648;9.910;2023-11-19T05:24:14;47.05;;;24.75;;
31652;SDS011;18261;53.648;9.910;2023-11-19T05:26:40;43.70;;;26.17;;
31652;SDS011;18261;53.648;9.910;2023-11-19T05:29:06;49.35;;;27.13;;
31652;SDS011;18261;53.648;9.910;2023-11-19T05:31:35;47.65;;;27.10;;
31652;SDS011;18261;53.648;9.910;2023-11-19T05:34:01;54.58;;;29.90;;
31652;SDS011;18261;53.648;9.910;2023-11-19T05:36:28;49.45;;;28.42;;
31652;SDS011;18261;53.648;9.910;2023-11-19T05:38:54;68.13;;;29.67;;
31652;SDS011;18261;53.648;9.910;2023-11-19T05:41:20;65.05;;;32.30;;
31652;SDS011;18261;53.648;9.910;2023-11-19T05:43:46;59.22;;;30.27;;
31652;SDS011;18261;53.648;9.910;2023-11-19T05:46:12;61.10;;;32.70;;
31652;SDS011;18261;53.648;9.910;2023-11-19T05:48:38;67.20;;;31.95;;
31652;SDS011;18261;53.648;9.910;2023-11-19T05:51:04;66.25;;;32.90;;
31652;SDS011;18261;53.648;9.910;2023-11-19T05:53:31;66.80;;;30.95;;
31652;SDS011;18261;53.648;9.910;2023-11-19T05:55:57;66.05;;;31.10;;
31652;SDS011;18261;53.648;9.910;2023-11-19T05:58:27;62.50;;;31.20;;
31652;SDS011;18261;53.648;9.910;2023-11-19T06:00:56;63.90;;;31.13;;
31652;SDS011;18261;53.648;9.910;2023-11-19T06:03:22;57.38;;;29.95;;
31652;SDS011;18261;53.648;9.910;2023-11-19T06:05:49;64.07;;;28.50;;
31652;SDS011;18261;53.648;9.910;2023-11-19T06:08:15;60.83;;;29.02;;
31652;SDS011;18261;53.648;9.910;2023-11-19T06:10:41;63.08;;;28.90;;
31652;SDS011;18261;53.648;9.910;2023-11-19T06:13:08;61.88;;;27.58;;
31652;SDS011;18261;53.648;9.910;2023-11-19T06:15:36;66.90;;;26.88;;
31652;SDS011;18261;53.648;9.910;2023-11-19T06:18:02;65.78;;;26.63;;
31652;SDS011;18261;53.648;9.910;2023-11-19T06:20:32;80.00;;;26.65;;
31652;SDS011;18261;53.648;9.910;2023-11-19T06:22:58;83.40;;;25.10;;
31652;SDS011;18261;53.648;9.910;2023-11-19T06:25:24;71.45;;;23.58;;
31652;SDS011;18261;53.648;9.910;2023-11-19T06:27:50;58.33;;;21.83;;
31652;SDS011;18261;53.648;9.910;2023-11-19T06:30:16;62.75;;;21.27;;
31652;SDS011;18261;53.648;9.910;2023-11-19T06:32:43;66.82;;;20.88;;
31652;SDS011;18261;53.648;9.910;2023-11-19T06:35:09;61.58;;;20.08;;
31652;SDS011;18261;53.648;9.910;2023-11-19T06:37:35;66.25;;;18.65;;
31652;SDS011;18261;53.648;9.910;2023-11-19T06:40:02;66.90;;;16.48;;
31652;SDS011;18261;53.648;9.910;2023-11-19T06:42:30;69.18;;;15.45;;
31652;SDS011;18261;53.648;9.910;2023-11-19T06:44:56;64.60;;;15.43;;
31652;SDS011;18261;53.648;9.910;2023-11-19T06:47:24;86.72;;;16.15;;
31652;SDS011;18261;53.648;9.910;2023-11-19T06:49:50;53.15;;;13.48;;
31652;SDS011;18261;53.648;9.910;2023-11-19T06:52:17;64.93;;;12.75;;
31652;SDS011;18261;53.648;9.910;2023-11-19T06:54:43;70.32;;;12.60;;
31652;SDS011;18261;53.648;9.910;2023-11-19T06:57:10;58.13;;;13.35;;
31652;SDS011;18261;53.648;9.910;2023-11-19T06:59:39;68.50;;;13.45;;
31652;SDS011;18261;53.648;9.910;2023-11-19T07:02:06;65.68;;;11.07;;
31652;SDS011;18261;53.648;9.910;2023-11-19T07:04:32;64.60;;;10.35;;
31652;SDS011;18261;53.648;9.910;2023-11-19T07:06:58;58.40;;;10.27;;
31652;SDS011;18261;53.648;9.910;2023-11-19T07:09:25;65.78;;;10.90;;
31652;SDS011;18261;53.648;9.910;2023-11-19T07:11:51;64.75;;;9.70;;
31652;SDS011;18261;53.648;9.910;2023-11-19T07:14:17;65.35;;;10.57;;
31652;SDS011;18261;53.648;9.910;2023-11-19T07:16:43;58.38;;;10.20;;
31652;SDS011;18261;53.648;9.910;2023-11-19T07:19:11;51.05;;;7.78;;
31652;SDS011;18261;53.648;9.910;2023-11-19T07:21:39;67.07;;;8.82;;
31652;SDS011;18261;53.648;9.910;2023-11-19T07:24:08;60.50;;;8.98;;
31652;SDS011;18261;53.648;9.910;2023-11-19T07:26:35;58.38;;;8.45;;
31652;SDS011;18261;53.648;9.910;2023-11-19T07:29:02;66.93;;;8.27;;
31652;SDS011;18261;53.648;9.910;2023-11-19T07:31:28;59.78;;;7.75;;
31652;SDS011;18261;53.648;9.910;2023-11-19T07:33:54;52.95;;;7.85;;
31652;SDS011;18261;53.648;9.910;2023-11-19T07:36:20;70.80;;;8.32;;
31652;SDS011;18261;53.648;9.910;2023-11-19T07:38:46;68.15;;;9.15;;
31652;SDS011;18261;53.648;9.910;2023-11-19T07:41:15;63.45;;;8.32;;
31652;SDS011;18261;53.648;9.910;2023-11-19T07:43:44;54.65;;;7.28;;
31652;SDS011;18261;53.648;9.910;2023-11-19T07:46:11;58.55;;;7.45;;
31652;SDS011;18261;53.648;9.910;2023-11-19T07:48:39;70.75;;;8.57;;
31652;SDS011;18261;53.648;9.910;2023-11-19T07:51:07;56.67;;;7.30;;
31652;SDS011;18261;53.648;9.910;2023-11-19T07:53:33;66.63;;;7.72;;
31652;SDS011;18261;53.648;9.910;2023-11-19T07:55:59;61.10;;;7.95;;
31652;SDS011;18261;53.648;9.910;2023-11-19T07:58:25;68.93;;;8.45;;
31652;SDS011;18261;53.648;9.910;2023-11-19T08:00:51;59.33;;;8.02;;
31652;SDS011;18261;53.648;9.910;2023-11-19T08:03:17;58.15;;;6.97;;
31652;SDS011;18261;53.648;9.910;2023-11-19T08:05:49;68.20;;;7.65;;
31652;SDS011;18261;53.648;9.910;2023-11-19T08:08:15;70.18;;;8.45;;
31652;SDS011;18261;53.648;9.910;2023-11-19T08:10:41;60.17;;;7.93;;
31652;SDS011;18261;53.648;9.910;2023-11-19T08:13:09;54.00;;;7.22;;
31652;SDS011;18261;53.648;9.910;2023-11-19T08:15:35;62.17;;;8.25;;
31652;SDS011;18261;53.648;9.910;2023-11-19T08:18:01;73.40;;;8.60;;
31652;SDS011;18261;53.648;9.910;2023-11-19T08:20:27;61.35;;;8.75;;
31652;SDS011;18261;53.648;9.910;2023-11-19T08:22:53;77.75;;;8.95;;
31652;SDS011;18261;53.648;9.910;2023-11-19T08:25:19;75.55;;;8.88;;
31652;SDS011;18261;53.648;9.910;2023-11-19T08:27:45;65.40;;;8.82;;
31652;SDS011;18261;53.648;9.910;2023-11-19T08:30:11;69.32;;;9.35;;
31652;SDS011;18261;53.648;9.910;2023-11-19T08:32:38;60.50;;;9.02;;
31652;SDS011;18261;53.648;9.910;2023-11-19T08:35:04;68.53;;;8.80;;
31652;SDS011;18261;53.648;9.910;2023-11-19T08:37:30;72.40;;;9.73;;
31652;SDS011;18261;53.648;9.910;2023-11-19T08:39:56;74.13;;;10.27;;
31652;SDS011;18261;53.648;9.910;2023-11-19T08:42:22;78.10;;;9.85;;
31652;SDS011;18261;53.648;9.910;2023-11-19T08:44:49;79.75;;;9.43;;
31652;SDS011;18261;53.648;9.910;2023-11-19T08:47:15;63.15;;;7.78;;
31652;SDS011;18261;53.648;9.910;2023-11-19T08:49:43;58.67;;;7.68;;
31652;SDS011;18261;53.648;9.910;2023-11-19T08:52:09;76.55;;;9.48;;
31652;SDS011;18261;53.648;9.910;2023-11-19T08:54:35;65.72;;;8.20;;
31652;SDS011;18261;53.648;9.910;2023-11-19T08:57:02;62.42;;;8.35;;
31652;SDS011;18261;53.648;9.910;2023-11-19T08:59:28;60.83;;;7.78;;
31652;SDS011;18261;53.648;9.910;2023-11-19T09:01:54;65.82;;;9.00;;
31652;SDS011;18261;53.648;9.910;2023-11-19T09:04:20;72.10;;;9.23;;
31652;SDS011;18261;53.648;9.910;2023-11-19T09:06:50;71.65;;;8.52;;
31652;SDS011;18261;53.648;9.910;2023-11-19T09:09:16;75.75;;;8.93;;
31652;SDS011;18261;53.648;9.910;2023-11-19T09:11:42;66.68;;;9.63;;
31652;SDS011;18261;53.648;9.910;2023-11-19T09:14:08;73.60;;;9.65;;
31652;SDS011;18261;53.648;9.910;2023-11-19T09:16:34;72.25;;;10.18;;
31652;SDS011;18261;53.648;9.910;2023-11-19T09:19:00;78.00;;;10.73;;
31652;SDS011;18261;53.648;9.910;2023-11-19T09:21:27;87.65;;;11.23;;
31652;SDS011;18261;53.648;9.910;2023-11-19T09:23:56;69.35;;;10.52;;
31652;SDS011;18261;53.648;9.910;2023-11-19T09:26:22;72.57;;;9.90;;
31652;SDS011;18261;53.648;9.910;2023-11-19T09:28:48;68.80;;;9.82;;
31652;SDS011;18261;53.648;9.910;2023-11-19T09:31:17;82.90;;;10.63;;
31652;SDS011;18261;53.648;9.910;2023-11-19T09:33:43;67.68;;;8.77;;
31652;SDS011;18261;53.648;9.910;2023-11-19T09:36:14;76.60;;;10.27;;
31652;SDS011;18261;53.648;9.910;2023-11-19T09:38:41;81.72;;;9.75;;
31652;SDS011;18261;53.648;9.910;2023-11-19T09:41:09;69.93;;;8.52;;
31652;SDS011;18261;53.648;9.910;2023-11-19T09:43:37;76.43;;;10.80;;
31652;SDS011;18261;53.648;9.910;2023-11-19T09:46:07;84.03;;;10.55;;
31652;SDS011;18261;53.648;9.910;2023-11-19T09:48:36;82.93;;;10.25;;
31652;SDS011;18261;53.648;9.910;2023-11-19T09:51:04;70.43;;;9.90;;
31652;SDS011;18261;53.648;9.910;2023-11-19T09:53:30;79.20;;;10.77;;
31652;SDS011;18261;53.648;9.910;2023-11-19T09:55:57;71.03;;;9.65;;
31652;SDS011;18261;53.648;9.910;2023-11-19T09:58:25;61.03;;;8.90;;
31652;SDS011;18261;53.648;9.910;2023-11-19T10:00:52;72.35;;;9.32;;
31652;SDS011;18261;53.648;9.910;2023-11-19T10:03:18;74.85;;;10.57;;
31652;SDS011;18261;53.648;9.910;2023-11-19T10:05:44;68.93;;;9.52;;
31652;SDS011;18261;53.648;9.910;2023-11-19T10:08:10;81.22;;;10.57;;
31652;SDS011;18261;53.648;9.910;2023-11-19T10:10:36;91.32;;;10.13;;
31652;SDS011;18261;53.648;9.910;2023-11-19T10:13:02;79.55;;;10.43;;
31652;SDS011;18261;53.648;9.910;2023-11-19T10:15:28;63.85;;;10.48;;
31652;SDS011;18261;53.648;9.910;2023-11-19T10:18:00;67.53;;;9.07;;
31652;SDS011;18261;53.648;9.910;2023-11-19T10:20:26;69.93;;;9.52;;
31652;SDS011;18261;53.648;9.910;2023-11-19T10:22:53;83.57;;;10.60;;
31652;SDS011;18261;53.648;9.910;2023-11-19T10:25:23;76.30;;;9.18;;
31652;SDS011;18261;53.648;9.910;2023-11-19T10:27:53;80.05;;;10.32;;
31652;SDS011;18261;53.648;9.910;2023-11-19T10:30:29;88.00;;;9.80;;
31652;SDS011;18261;53.648;9.910;2023-11-19T10:35:33;78.10;;;9.77;;
31652;SDS011;18261;53.648;9.910;2023-11-19T10:38:13;79.85;;;10.45;;
31652;SDS011;18261;53.648;9.910;2023-11-19T10:40:42;82.28;;;9.65;;
31652;SDS011;18261;53.648;9.910;2023-11-19T10:43:08;63.72;;;8.63;;
31652;SDS011;18261;53.648;9.910;2023-11-19T10:45:35;74.25;;;9.43;;
31652;SDS011;18261;53.648;9.910;2023-11-19T10:48:02;61.25;;;8.48;;
31652;SDS011;18261;53.648;9.910;2023-11-19T10:50:31;76.32;;;10.00;;
31652;SDS011;18261;53.648;9.910;2023-11-19T10:52:57;69.85;;;10.43;;
31652;SDS011;18261;53.648;9.910;2023-11-19T10:55:27;74.75;;;9.88;;
31652;SDS011;18261;53.648;9.910;2023-11-19T10:57:56;65.07;;;9.45;;
31652;SDS011;18261;53.648;9.910;2023-11-19T11:00:24;67.10;;;9.65;;
31652;SDS011;18261;53.648;9.910;2023-11-19T11:02:50;61.03;;;8.70;;
31652;SDS011;18261;53.648;9.910;2023-11-19T11:05:20;65.20;;;9.07;;
31652;SDS011;18261;53.648;9.910;2023-11-19T11:07:47;80.10;;;10.13;;
31652;SDS011;18261;53.648;9.910;2023-11-19T11:10:15;76.78;;;9.80;;
31652;SDS011;18261;53.648;9.910;2023-11-19T11:12:42;81.05;;;11.75;;
31652;SDS011;18261;53.648;9.910;2023-11-19T11:15:10;81.15;;;10.45;;
31652;SDS011;18261;53.648;9.910;2023-11-19T11:17:37;76.55;;;11.57;;
31652;SDS011;18261;53.648;9.910;2023-11-19T11:20:05;77.22;;;9.85;;
31652;SDS011;18261;53.648;9.910;2023-11-19T11:22:33;81.75;;;11.10;;
31652;SDS011;18261;53.648;9.910;2023-11-19T11:25:19;77.28;;;9.40;;
31652;SDS011;18261;53.648;9.910;2023-11-19T11:27:52;68.35;;;9.32;;
31652;SDS011;18261;53.648;9.910;2023-11-19T11:31:26;73.68;;;10.18;;
31652;SDS011;18261;53.648;9.910;2023-11-19T11:36:13;70.63;;;9.82;;
31652;SDS011;18261;53.648;9.910;2023-11-19T11:38:41;66.38;;;8.77;;
31652;SDS011;18261;53.648;9.910;2023-11-19T11:41:16;73.20;;;9.98;;
31652;SDS011;18261;53.648;9.910;2023-11-19T11:43:47;70.45;;;9.77;;
31652;SDS011;18261;53.648;9.910;2023-11-19T11:48:59;71.93;;;9.48;;
31652;SDS011;18261;53.648;9.910;2023-11-19T11:54:10;69.20;;;8.93;;
31652;SDS011;18261;53.648;9.910;2023-11-19T11:56:37;77.57;;;10.13;;
31652;SDS011;18261;53.648;9.910;2023-11-19T11:59:03;75.80;;;10.23;;
31652;SDS011;18261;53.648;9.910;2023-11-19T12:01:29;76.93;;;10.57;;
31652;SDS011;18261;53.648;9.910;2023-11-19T12:03:55;76.50;;;9.73;;
31652;SDS011;18261;53.648;9.910;2023-11-19T12:06:22;75.95;;;9.93;;
31652;SDS011;18261;53.648;9.910;2023-11-19T12:08:48;73.32;;;10.90;;
31652;SDS011;18261;53.648;9.910;2023-11-19T12:11:14;64.75;;;9.48;;
31652;SDS011;18261;53.648;9.910;2023-11-19T12:13:56;76.35;;;11.15;;
31652;SDS011;18261;53.648;9.910;2023-11-19T12:16:24;65.57;;;9.18;;
31652;SDS011;18261;53.648;9.910;2023-11-19T12:18:52;82.97;;;11.35;;
31652;SDS011;18261;53.648;9.910;2023-11-19T12:21:28;85.18;;;10.60;;
31652;SDS011;18261;53.648;9.910;2023-11-19T12:23:55;66.90;;;8.85;;
31652;SDS011;18261;53.648;9.910;2023-11-19T12:26:30;61.92;;;9.50;;
31652;SDS011;18261;53.648;9.910;2023-11-19T12:28:57;58.45;;;9.48;;
31652;SDS011;18261;53.648;9.910;2023-11-19T12:31:24;63.25;;;8.98;;
31652;SDS011;18261;53.648;9.910;2023-11-19T12:33:50;75.88;;;11.05;;
31652;SDS011;18261;53.648;9.910;2023-11-19T12:36:17;86.28;;;11.20;;
31652;SDS011;18261;53.648;9.910;2023-11-19T12:38:44;72.53;;;9.70;;
31652;SDS011;18261;53.648;9.910;2023-11-19T12:41:11;72.82;;;10.25;;
31652;SDS011;18261;53.648;9.910;2023-11-19T12:43:38;57.58;;;7.63;;
31652;SDS011;18261;53.648;9.910;2023-11-19T12:46:16;65.65;;;8.40;;
31652;SDS011;18261;53.648;9.910;2023-11-19T12:48:44;57.53;;;8.90;;
31652;SDS011;18261;53.648;9.910;2023-11-19T12:51:10;61.95;;;8.65;;
31652;SDS011;18261;53.648;9.910;2023-11-19T12:53:47;57.63;;;8.75;;
31652;SDS011;18261;53.648;9.910;2023-11-19T12:56:15;70.82;;;9.00;;
31652;SDS011;18261;53.648;9.910;2023-11-19T12:58:41;67.85;;;8.73;;
31652;SDS011;18261;53.648;9.910;2023-11-19T13:01:08;64.28;;;9.20;;
31652;SDS011;18261;53.648;9.910;2023-11-19T13:03:37;74.13;;;10.60;;
31652;SDS011;18261;53.648;9.910;2023-11-19T13:06:08;72.80;;;9.27;;
31652;SDS011;18261;53.648;9.910;2023-11-19T13:11:05;76.25;;;9.73;;
31652;SDS011;18261;53.648;9.910;2023-11-19T13:13:31;73.40;;;9.95;;
31652;SDS011;18261;53.648;9.910;2023-11-19T13:16:04;65.53;;;9.30;;
31652;SDS011;18261;53.648;9.910;2023-11-19T13:18:34;56.15;;;8.38;;
31652;SDS011;18261;53.648;9.910;2023-11-19T13:21:00;69.03;;;9.40;;
31652;SDS011;18261;53.648;9.910;2023-11-19T13:23:26;62.42;;;8.80;;
31652;SDS011;18261;53.648;9.910;2023-11-19T13:25:52;65.18;;;9.65;;
31652;SDS011;18261;53.648;9.910;2023-11-19T13:28:18;75.63;;;9.63;;
31652;SDS011;18261;53.648;9.910;2023-11-19T13:30:44;66.68;;;9.00;;
31652;SDS011;18261;53.648;9.910;2023-11-19T13:33:10;60.83;;;9.60;;
31652;SDS011;18261;53.648;9.910;2023-11-19T13:35:37;58.78;;;9.00;;
31652;SDS011;18261;53.648;9.910;2023-11-19T13:38:05;70.90;;;9.68;;
31652;SDS011;18261;53.648;9.910;2023-11-19T13:40:33;65.40;;;9.68;;
31652;SDS011;18261;53.648;9.910;2023-11-19T13:42:59;63.80;;;8.38;;
31652;SDS011;18261;53.648;9.910;2023-11-19T13:45:25;81.60;;;11.35;;
31652;SDS011;18261;53.648;9.910;2023-11-19T13:47:51;68.40;;;8.60;;
31652;SDS011;18261;53.648;9.910;2023-11-19T13:50:17;70.18;;;9.98;;
31652;SDS011;18261;53.648;9.910;2023-11-19T13:52:44;61.08;;;8.77;;
31652;SDS011;18261;53.648;9.910;2023-11-19T13:55:12;68.50;;;9.60;;
31652;SDS011;18261;53.648;9.910;2023-11-19T13:57:38;61.83;;;9.25;;
31652;SDS011;18261;53.648;9.910;2023-11-19T14:00:08;64.47;;;9.27;;
31652;SDS011;18261;53.648;9.910;2023-11-19T14:02:41;67.97;;;10.65;;
31652;SDS011;18261;53.648;9.910;2023-11-19T14:05:07;61.95;;;8.95;;
31652;SDS011;18261;53.648;9.910;2023-11-19T14:07:33;74.10;;;10.57;;
31652;SDS011;18261;53.648;9.910;2023-11-19T14:09:59;97.07;;;18.63;;
31652;SDS011;18261;53.648;9.910;2023-11-19T14:12:25;87.53;;;16.15;;
31652;SDS011;18261;53.648;9.910;2023-11-19T14:14:51;81.68;;;11.90;;
31652;SDS011;18261;53.648;9.910;2023-11-19T14:17:17;62.13;;;10.45;;
31652;SDS011;18261;53.648;9.910;2023-11-19T14:19:43;74.15;;;10.90;;
31652;SDS011;18261;53.648;9.910;2023-11-19T14:22:10;72.80;;;11.63;;
31652;SDS011;18261;53.648;9.910;2023-11-19T14:24:36;82.63;;;9.27;;
31652;SDS011;18261;53.648;9.910;2023-11-19T14:27:02;69.28;;;9.30;;
31652;SDS011;18261;53.648;9.910;2023-11-19T14:29:28;38.83;;;5.78;;
31652;SDS011;18261;53.648;9.910;2023-11-19T14:31:55;46.47;;;6.32;;
31652;SDS011;18261;53.648;9.910;2023-11-19T14:34:22;28.30;;;4.40;;
31652;SDS011;18261;53.648;9.910;2023-11-19T14:36:47;29.25;;;4.47;;
31652;SDS011;18261;53.648;9.910;2023-11-19T14:39:14;36.83;;;5.10;;
31652;SDS011;18261;53.648;9.910;2023-11-19T14:41:40;36.95;;;6.95;;
31652;SDS011;18261;53.648;9.910;2023-11-19T14:44:08;25.60;;;4.78;;
31652;SDS011;18261;53.648;9.910;2023-11-19T14:46:34;32.03;;;4.55;;
31652;SDS011;18261;53.648;9.910;2023-11-19T14:49:00;19.08;;;4.00;;
31652;SDS011;18261;53.648;9.910;2023-11-19T14:51:26;17.45;;;2.88;;
31652;SDS011;18261;53.648;9.910;2023-11-19T14:53:52;18.35;;;3.20;;
31652;SDS011;18261;53.648;9.910;2023-11-19T14:56:18;15.27;;;2.67;;